Time;durP1;ratioP1;P1;durP2;ratioP2;P2;SDS_P1;SDS_P2;PMS_P1;PMS_P2;Temp;Humidity;BMP_temperature;BMP_pressure;BME280_temperature;BME280_humidity;BME280_pressure;Samples;Min_cycle;Max_cycle;Signal;HPM_P1;HPM_P2
2022/03/09 00:01:14;;;;;;;15.73;7.83;;;1.40;61.30;;;;;;5090710;28;20182;-76
2022/03/09 00:03:40;;;;;;;23.27;9.63;;;1.30;61.70;;;;;;5092010;28;20229;-77
2022/03/09 00:06:05;;;;;;;18.40;8.37;;;1.30;61.50;;;;;;5089503;28;20188;-76
2022/03/09 00:08:32;;;;;;;12.87;7.60;;;1.20;61.90;;;;;;5090438;28;20187;-76
2022/03/09 00:10:58;;;;;;;17.10;7.57;;;1.20;62.00;;;;;;5089604;28;20963;-77
2022/03/09 00:13:24;;;;;;;19.13;9.20;;;1.10;62.00;;;;;;5090839;28;20189;-76
2022/03/09 00:15:50;;;;;;;17.93;8.50;;;1.10;62.50;;;;;;5091091;28;20210;-77
2022/03/09 00:18:15;;;;;;;18.30;8.23;;;1.10;62.60;;;;;;5090135;28;20546;-77
2022/03/09 00:20:41;;;;;;;18.57;8.83;;;1.10;62.80;;;;;;5089953;28;20217;-73
2022/03/09 00:23:07;;;;;;;15.17;7.73;;;1.10;62.80;;;;;;5089750;28;20186;-77
2022/03/09 00:25:33;;;;;;;16.97;8.00;;;1.00;62.90;;;;;;5084154;28;20191;-76
2022/03/09 00:27:59;;;;;;;14.93;7.97;;;1.00;63.10;;;;;;5089282;28;20179;-76
2022/03/09 00:30:25;;;;;;;18.57;8.00;;;0.90;63.10;;;;;;5089922;28;20978;-76
2022/03/09 00:32:50;;;;;;;17.15;8.30;;;0.90;62.90;;;;;;5089607;28;20498;-74
2022/03/09 00:35:16;;;;;;;18.73;10.20;;;0.90;62.90;;;;;;5079526;28;20331;-75
2022/03/09 00:37:42;;;;;;;15.00;7.70;;;0.90;63.20;;;;;;5089817;28;20190;-76
2022/03/09 00:40:08;;;;;;;14.20;6.83;;;0.90;63.20;;;;;;5091698;28;20943;-75
2022/03/09 00:42:38;;;;;;;16.25;7.95;;;0.90;63.40;;;;;;5093246;28;20198;-77
2022/03/09 00:45:06;;;;;;;17.98;8.15;;;0.80;63.40;;;;;;5092504;28;20179;-75
2022/03/09 00:47:31;;;;;;;16.63;8.05;;;0.80;63.70;;;;;;5089354;28;20626;-74
2022/03/09 00:49:57;;;;;;;14.00;7.30;;;0.80;63.90;;;;;;5089285;28;20215;-76
2022/03/09 00:52:23;;;;;;;17.37;8.20;;;0.70;64.10;;;;;;5089279;28;20179;-75
2022/03/09 00:54:49;;;;;;;14.47;7.80;;;0.80;64.10;;;;;;5086306;28;20179;-77
2022/03/09 00:57:15;;;;;;;16.50;7.93;;;0.80;63.90;;;;;;5088803;28;20183;-73
2022/03/09 00:59:41;;;;;;;18.17;8.40;;;0.80;63.90;;;;;;5089686;28;21302;-74
2022/03/09 01:02:06;;;;;;;13.17;7.57;;;0.80;63.90;;;;;;5074979;28;20191;-73
2022/03/09 01:04:34;;;;;;;18.23;7.47;;;0.70;64.20;;;;;;5094234;28;20238;-75
2022/03/09 01:07:00;;;;;;;16.95;8.43;;;0.70;63.90;;;;;;5096775;28;20179;-76
2022/03/09 01:09:26;;;;;;;21.17;8.68;;;0.70;63.90;;;;;;5095481;28;20210;-76
2022/03/09 01:11:52;;;;;;;20.07;7.70;;;0.70;63.90;;;;;;5096327;28;20211;-76
2022/03/09 01:14:17;;;;;;;17.10;8.23;;;0.70;63.80;;;;;;5093621;28;20218;-76
2022/03/09 01:16:43;;;;;;;14.77;8.17;;;0.60;63.90;;;;;;5093506;28;20186;-75
2022/03/09 01:19:09;;;;;;;16.53;8.47;;;0.60;63.80;;;;;;5093915;28;20206;-76
2022/03/09 01:21:35;;;;;;;17.63;8.00;;;0.60;63.90;;;;;;5094022;28;20226;-75
2022/03/09 01:24:01;;;;;;;18.30;7.60;;;0.50;64.20;;;;;;5082144;28;20187;-76
2022/03/09 01:26:26;;;;;;;14.63;6.80;;;0.50;64.10;;;;;;5096179;28;20414;-76
2022/03/09 01:28:52;;;;;;;14.43;6.90;;;0.50;63.80;;;;;;5095555;28;20448;-74
2022/03/09 01:31:19;;;;;;;13.95;6.95;;;0.50;63.80;;;;;;5095012;28;20290;-75
2022/03/09 01:33:44;;;;;;;15.82;8.05;;;0.50;63.90;;;;;;5100674;28;20541;-75
2022/03/09 01:36:10;;;;;;;20.07;8.77;;;0.50;64.10;;;;;;5094094;28;20191;-75
2022/03/09 01:38:36;;;;;;;19.17;9.20;;;0.50;64.40;;;;;;5096135;28;20179;-76
2022/03/09 01:41:02;;;;;;;16.50;7.97;;;0.50;64.50;;;;;;5095014;28;20187;-74
2022/03/09 01:43:28;;;;;;;19.23;8.90;;;0.50;65.40;;;;;;5085341;28;20428;-76
2022/03/09 01:45:53;;;;;;;16.80;9.13;;;0.50;66.00;;;;;;5094727;28;20417;-74
2022/03/09 01:48:19;;;;;;;19.30;9.90;;;0.50;66.00;;;;;;5086825;28;20217;-75
2022/03/09 01:50:46;;;;;;;16.63;8.35;;;0.50;66.10;;;;;;5095369;28;20690;-76
2022/03/09 01:53:12;;;;;;;19.73;8.93;;;0.50;66.00;;;;;;5096087;28;20180;-75
2022/03/09 01:55:39;;;;;;;16.27;8.83;;;0.40;65.30;;;;;;5093007;28;20171;-76
2022/03/09 01:58:05;;;;;;;16.95;8.57;;;0.30;65.30;;;;;;5092371;28;20417;-74
2022/03/09 02:00:30;;;;;;;19.23;9.03;;;0.30;65.80;;;;;;5092895;28;20583;-75
2022/03/09 02:02:56;;;;;;;22.93;9.10;;;0.30;66.00;;;;;;5095745;28;20460;-76
2022/03/09 02:05:22;;;;;;;16.60;8.57;;;0.30;66.40;;;;;;5098259;28;20179;-77
2022/03/09 02:10:32;;;;;;;15.77;7.82;;;0.30;66.10;;;;;;5093929;28;20210;-72
2022/03/09 02:12:58;;;;;;;14.07;7.68;;;0.30;66.30;;;;;;5093365;28;20179;-72
2022/03/09 02:15:24;;;;;;;14.23;7.23;;;0.40;65.70;;;;;;5092808;28;20654;-72
2022/03/09 02:17:50;;;;;;;20.80;7.60;;;0.40;65.40;;;;;;5093655;28;20186;-74
2022/03/09 02:20:16;;;;;;;18.20;7.70;;;0.30;65.00;;;;;;5091140;28;20332;-73
2022/03/09 02:22:43;;;;;;;17.90;7.87;;;0.20;64.40;;;;;;5095472;28;20665;-72
2022/03/09 02:25:13;;;;;;;17.58;8.43;;;0.10;65.30;;;;;;5096227;28;20191;-74
2022/03/09 02:27:41;;;;;;;18.33;8.48;;;0.10;66.30;;;;;;5096243;28;20687;-72
2022/03/09 02:30:08;;;;;;;21.08;8.60;;;0.10;66.90;;;;;;5076413;28;20211;-75
2022/03/09 02:32:39;;;;;;;17.77;8.60;;;0.20;66.70;;;;;;5093471;28;20179;-72
2022/03/09 02:35:05;;;;;;;20.20;9.07;;;0.20;66.30;;;;;;5092474;28;20188;-72
2022/03/09 02:37:30;;;;;;;21.93;7.90;;;0.10;66.40;;;;;;5093769;28;20186;-74
2022/03/09 02:39:56;;;;;;;18.37;8.07;;;0.10;66.60;;;;;;5094579;28;20433;-74
2022/03/09 02:42:22;;;;;;;15.80;8.27;;;0.10;67.20;;;;;;5094953;28;20672;-72
2022/03/09 02:44:48;;;;;;;19.93;8.77;;;0.10;66.90;;;;;;5078069;28;20557;-74
2022/03/09 02:47:13;;;;;;;19.13;7.87;;;0.10;67.20;;;;;;5093068;28;20174;-74
2022/03/09 02:49:39;;;;;;;12.10;7.87;;;0.10;67.20;;;;;;5093157;28;20783;-72
2022/03/09 02:52:05;;;;;;;17.57;8.00;;;0.00;67.30;;;;;;5092309;28;20213;-73
2022/03/09 02:54:31;;;;;;;15.90;7.80;;;0.00;67.50;;;;;;5095503;28;20549;-73
2022/03/09 02:56:57;;;;;;;16.13;8.53;;;0.00;67.70;;;;;;5091430;28;20421;-75
2022/03/09 02:59:22;;;;;;;14.70;7.50;;;0.00;67.90;;;;;;5092007;28;20196;-74
2022/03/09 03:01:48;;;;;;;18.00;8.03;;;0.00;67.90;;;;;;5091869;28;20633;-74
2022/03/09 03:04:14;;;;;;;17.23;8.73;;;0.00;67.70;;;;;;5091795;28;20176;-72
2022/03/09 03:06:39;;;;;;;21.33;8.87;;;0.10;67.70;;;;;;5091955;28;20175;-74
2022/03/09 03:09:05;;;;;;;14.70;8.27;;;0.00;67.70;;;;;;5081300;28;20447;-75
2022/03/09 03:11:31;;;;;;;16.57;8.57;;;0.00;67.70;;;;;;5092852;28;20545;-73
2022/03/09 03:13:57;;;;;;;18.97;8.20;;;-0.10;67.90;;;;;;5095100;28;20183;-73
2022/03/09 03:16:22;;;;;;;15.83;8.80;;;-0.10;67.90;;;;;;5093443;28;20413;-72
2022/03/09 03:18:48;;;;;;;16.17;7.60;;;-0.10;67.90;;;;;;5093757;28;20677;-74
2022/03/09 03:21:14;;;;;;;17.23;7.87;;;-0.20;68.30;;;;;;5076137;28;20303;-73
2022/03/09 03:23:40;;;;;;;21.87;9.27;;;-0.20;68.80;;;;;;5093102;28;20262;-72
2022/03/09 03:26:06;;;;;;;17.67;7.60;;;-0.10;68.60;;;;;;5093622;28;20425;-74
2022/03/09 03:28:32;;;;;;;19.00;8.77;;;-0.10;68.80;;;;;;5090956;28;20827;-72
2022/03/09 03:30:58;;;;;;;16.00;8.18;;;-0.10;68.80;;;;;;5091608;28;20525;-72
2022/03/09 03:33:25;;;;;;;15.68;7.57;;;-0.10;68.80;;;;;;5091635;28;20642;-72
2022/03/09 03:35:51;;;;;;;16.65;6.75;;;-0.20;68.60;;;;;;5091640;28;20183;-73
2022/03/09 03:38:17;;;;;;;15.70;7.50;;;-0.10;68.50;;;;;;5073766;28;20565;-73
2022/03/09 03:40:44;;;;;;;14.55;7.38;;;-0.20;68.50;;;;;;5091764;28;21053;-73
2022/03/09 03:43:10;;;;;;;13.05;7.35;;;-0.20;68.90;;;;;;5091895;28;20270;-74
2022/03/09 03:45:35;;;;;;;19.20;8.55;;;-0.20;68.90;;;;;;5092141;28;20474;-75
2022/03/09 03:48:01;;;;;;;18.00;8.63;;;-0.20;68.80;;;;;;5091487;28;20201;-73
2022/03/09 03:50:27;;;;;;;19.10;8.80;;;-0.20;68.60;;;;;;5091556;28;20649;-73
2022/03/09 03:52:53;;;;;;;15.67;7.90;;;-0.30;68.90;;;;;;5091613;28;20526;-74
2022/03/09 03:55:19;;;;;;;17.47;9.30;;;-0.20;69.50;;;;;;5092005;28;20546;-73
2022/03/09 03:57:45;;;;;;;12.70;7.53;;;-0.20;69.50;;;;;;5090198;28;20613;-74
2022/03/09 04:00:11;;;;;;;15.97;7.63;;;-0.30;69.70;;;;;;5090310;28;20297;-73
2022/03/09 04:02:38;;;;;;;13.50;7.38;;;-0.30;69.90;;;;;;5089761;28;20445;-74
2022/03/09 04:05:05;;;;;;;17.08;9.43;;;-0.30;70.10;;;;;;5090088;28;20191;-73
2022/03/09 04:07:31;;;;;;;17.83;7.70;;;-0.20;69.90;;;;;;5077562;28;20191;-72
2022/03/09 04:09:57;;;;;;;15.65;8.25;;;-0.30;70.10;;;;;;5089834;28;20230;-73
2022/03/09 04:12:23;;;;;;;17.40;7.80;;;-0.30;70.20;;;;;;5089243;28;20207;-75
2022/03/09 04:14:50;;;;;;;16.48;8.80;;;-0.30;69.80;;;;;;5090099;28;20220;-76
2022/03/09 04:17:16;;;;;;;16.17;8.02;;;-0.30;69.80;;;;;;5089225;28;20206;-75
2022/03/09 04:19:41;;;;;;;16.07;8.53;;;-0.30;69.70;;;;;;5090364;28;20234;-75
2022/03/09 04:22:07;;;;;;;18.00;8.03;;;-0.30;69.80;;;;;;5090664;28;20624;-76
2022/03/09 04:24:33;;;;;;;16.20;8.73;;;-0.40;69.80;;;;;;5084742;28;20844;-75
2022/03/09 04:26:59;;;;;;;17.40;8.47;;;-0.40;69.90;;;;;;5089696;28;20191;-75
2022/03/09 04:29:24;;;;;;;16.43;8.60;;;-0.50;70.20;;;;;;5090399;28;20268;-74
2022/03/09 04:31:50;;;;;;;16.47;8.50;;;-0.40;70.40;;;;;;5077883;28;20206;-73
2022/03/09 04:34:16;;;;;;;17.13;7.90;;;-0.40;70.20;;;;;;5089241;28;20241;-76
2022/03/09 04:36:41;;;;;;;14.30;7.30;;;-0.40;69.90;;;;;;5086927;28;20188;-75
2022/03/09 04:39:07;;;;;;;15.83;8.17;;;-0.50;69.70;;;;;;5082316;28;20294;-75
2022/03/09 04:41:33;;;;;;;16.07;7.90;;;-0.50;69.70;;;;;;5084500;28;20217;-75
2022/03/09 04:43:59;;;;;;;16.50;7.70;;;-0.60;69.80;;;;;;5091263;28;20183;-74
2022/03/09 04:46:24;;;;;;;19.07;8.57;;;-0.60;69.90;;;;;;5075328;28;20706;-75
2022/03/09 04:48:50;;;;;;;16.07;7.80;;;-0.60;69.90;;;;;;5075244;28;20229;-75
2022/03/09 04:51:16;;;;;;;16.47;7.33;;;-0.60;70.10;;;;;;5085110;28;20215;-75
2022/03/09 04:53:42;;;;;;;17.77;8.30;;;-0.60;70.10;;;;;;5093658;28;20236;-76
2022/03/09 04:56:08;;;;;;;16.63;8.10;;;-0.60;70.50;;;;;;5093025;28;20179;-74
2022/03/09 04:58:34;;;;;;;19.07;8.43;;;-0.60;70.80;;;;;;5094916;28;20199;-74
2022/03/09 05:01:00;;;;;;;15.37;8.20;;;-0.60;71.10;;;;;;5076155;28;20429;-75
2022/03/09 05:03:26;;;;;;;20.63;8.77;;;-0.60;71.80;;;;;;5093043;28;20903;-75
2022/03/09 05:05:51;;;;;;;18.47;8.67;;;-0.70;72.10;;;;;;5093083;28;20428;-75
2022/03/09 05:08:17;;;;;;;20.50;8.70;;;-0.70;72.10;;;;;;5093182;28;20186;-75
2022/03/09 05:10:43;;;;;;;17.77;8.40;;;-0.80;71.80;;;;;;5093787;28;20203;-76
2022/03/09 05:13:09;;;;;;;18.83;8.60;;;-0.80;71.30;;;;;;5093754;28;20179;-75
2022/03/09 05:15:35;;;;;;;15.60;8.60;;;-0.80;71.30;;;;;;5092967;28;20425;-75
2022/03/09 05:18:01;;;;;;;13.60;7.40;;;-0.90;71.40;;;;;;5076630;28;20197;-76
2022/03/09 05:20:26;;;;;;;16.30;8.53;;;-0.80;71.30;;;;;;5097975;28;20981;-75
2022/03/09 05:22:53;;;;;;;17.37;8.10;;;-0.80;71.10;;;;;;5095359;28;20501;-76
2022/03/09 05:25:19;;;;;;;16.63;8.40;;;-0.80;71.10;;;;;;5093769;28;20190;-75
2022/03/09 05:27:45;;;;;;;16.55;8.05;;;-0.70;71.00;;;;;;5098613;28;20264;-75
2022/03/09 05:30:11;;;;;;;18.75;8.43;;;-0.80;70.50;;;;;;5089199;28;20214;-75
2022/03/09 05:32:41;;;;;;;22.60;8.18;;;-0.80;70.20;;;;;;5098609;28;20180;-76
2022/03/09 05:35:09;;;;;;;14.93;7.05;;;-0.70;70.10;;;;;;5092725;28;20200;-75
2022/03/09 05:37:37;;;;;;;16.13;8.38;;;-0.70;70.10;;;;;;5088759;28;20664;-77
2022/03/09 05:40:03;;;;;;;17.40;7.90;;;-0.70;69.80;;;;;;5093696;28;20253;-75
2022/03/09 05:42:29;;;;;;;13.73;7.82;;;-0.70;70.10;;;;;;5092569;28;20319;-76
2022/03/09 05:44:55;;;;;;;19.33;8.43;;;-0.70;70.20;;;;;;5092619;28;20684;-76
2022/03/09 05:47:21;;;;;;;16.50;9.30;;;-0.80;70.70;;;;;;5091785;28;20610;-75
2022/03/09 05:49:46;;;;;;;17.60;9.20;;;-0.70;70.80;;;;;;5092864;28;20260;-75
2022/03/09 05:52:12;;;;;;;17.50;7.90;;;-0.70;70.80;;;;;;5068448;28;20841;-76
2022/03/09 05:54:38;;;;;;;16.73;8.37;;;-0.70;70.80;;;;;;5092428;28;20171;-74
2022/03/09 05:57:04;;;;;;;17.70;8.83;;;-0.70;70.80;;;;;;5091471;28;20233;-76
2022/03/09 05:59:30;;;;;;;17.43;8.87;;;-0.70;70.70;;;;;;5092805;28;20248;-76
2022/03/09 06:01:55;;;;;;;12.80;7.70;;;-0.70;70.20;;;;;;5092020;28;20907;-74
2022/03/09 06:04:21;;;;;;;17.73;8.20;;;-0.70;70.20;;;;;;5084287;28;20465;-75
2022/03/09 06:06:47;;;;;;;21.93;9.10;;;-0.70;70.20;;;;;;5087141;28;20214;-76
2022/03/09 06:09:13;;;;;;;14.13;8.00;;;-0.70;70.20;;;;;;5091526;28;20202;-76
2022/03/09 06:11:41;;;;;;;18.13;9.77;;;-0.70;70.10;;;;;;5091986;28;20199;-75
2022/03/09 06:14:07;;;;;;;19.25;9.40;;;-0.70;69.80;;;;;;5091669;28;20186;-77
2022/03/09 06:16:32;;;;;;;20.60;9.52;;;-0.70;69.90;;;;;;5092058;28;20590;-75
2022/03/09 06:18:58;;;;;;;20.87;8.67;;;-0.70;70.10;;;;;;5091828;28;20195;-75
2022/03/09 06:21:24;;;;;;;19.20;9.17;;;-0.80;70.20;;;;;;5086581;28;20425;-76
2022/03/09 06:23:50;;;;;;;12.93;7.27;;;-0.80;70.70;;;;;;5081728;28;20649;-76
2022/03/09 06:26:15;;;;;;;20.33;9.13;;;-0.70;70.80;;;;;;5091375;28;20186;-75
2022/03/09 06:28:41;;;;;;;22.60;9.73;;;-0.60;70.80;;;;;;5091771;28;20547;-77
2022/03/09 06:31:07;;;;;;;18.10;9.60;;;-0.60;70.70;;;;;;5091733;28;20210;-73
2022/03/09 06:33:33;;;;;;;19.60;9.70;;;-0.60;70.70;;;;;;5091240;28;20181;-74
2022/03/09 06:35:59;;;;;;;16.27;8.97;;;-0.50;71.10;;;;;;5084081;28;20433;-74
2022/03/09 06:38:25;;;;;;;18.00;9.63;;;-0.40;71.10;;;;;;5087974;28;20429;-74
2022/03/09 06:40:50;;;;;;;17.17;9.05;;;-0.40;70.80;;;;;;5091228;28;20681;-72
2022/03/09 06:43:16;;;;;;;24.53;10.00;;;-0.40;70.70;;;;;;5078525;28;20187;-72
2022/03/09 06:45:42;;;;;;;19.73;9.37;;;-0.40;70.50;;;;;;5091107;28;20299;-73
2022/03/09 06:48:08;;;;;;;15.47;8.63;;;-0.40;70.70;;;;;;5091618;28;20202;-73
2022/03/09 06:50:34;;;;;;;20.20;9.30;;;-0.40;70.80;;;;;;5091580;28;20215;-73
2022/03/09 06:53:00;;;;;;;16.63;9.15;;;-0.40;71.00;;;;;;5090940;28;20200;-74
2022/03/09 06:55:26;;;;;;;19.08;9.77;;;-0.40;71.00;;;;;;5091292;28;20184;-74
2022/03/09 06:57:52;;;;;;;16.20;9.47;;;-0.30;70.80;;;;;;5079479;28;20245;-74
2022/03/09 07:00:18;;;;;;;24.17;9.70;;;-0.30;70.40;;;;;;5091658;28;20528;-76
2022/03/09 07:02:45;;;;;;;19.73;9.30;;;-0.20;70.10;;;;;;5087746;28;20175;-73
2022/03/09 07:05:12;;;;;;;23.00;10.02;;;-0.20;70.10;;;;;;5072726;28;20237;-75
2022/03/09 07:07:39;;;;;;;23.52;10.00;;;-0.10;69.80;;;;;;5090328;28;20710;-73
2022/03/09 07:10:06;;;;;;;18.55;10.13;;;0.00;69.50;;;;;;5091066;28;20234;-74
2022/03/09 07:12:31;;;;;;;27.52;10.65;;;0.10;69.20;;;;;;5090661;28;20245;-76
2022/03/09 07:14:57;;;;;;;22.97;10.43;;;0.10;68.80;;;;;;5090813;28;20634;-75
2022/03/09 07:17:23;;;;;;;21.47;10.37;;;0.10;67.90;;;;;;5090271;28;20179;-75
2022/03/09 07:19:49;;;;;;;19.73;10.63;;;0.10;67.60;;;;;;5091238;28;20642;-76
2022/03/09 07:22:15;;;;;;;23.57;10.80;;;0.10;67.70;;;;;;5090420;28;20413;-75
2022/03/09 07:24:40;;;;;;;29.05;12.05;;;0.20;68.30;;;;;;5091021;28;20179;-76
2022/03/09 07:27:07;;;;;;;23.20;11.50;;;0.30;68.80;;;;;;5090476;28;20193;-75
2022/03/09 07:29:32;;;;;;;29.05;12.43;;;0.30;69.20;;;;;;5091095;28;20688;-75
2022/03/09 07:31:58;;;;;;;29.23;12.20;;;0.30;69.40;;;;;;5090817;28;20210;-75
2022/03/09 07:34:26;;;;;;;24.27;11.90;;;0.30;69.40;;;;;;5090735;28;20425;-74
2022/03/09 07:36:57;;;;;;;25.75;12.05;;;0.30;69.70;;;;;;5090800;28;20187;-75
2022/03/09 07:39:27;;;;;;;26.73;11.90;;;0.40;69.50;;;;;;5090131;28;20635;-75
2022/03/09 07:41:55;;;;;;;35.55;13.82;;;0.50;69.40;;;;;;5079107;28;20191;-75
2022/03/09 07:44:22;;;;;;;27.42;11.45;;;0.50;69.40;;;;;;5094213;28;20206;-75
2022/03/09 07:46:48;;;;;;;29.42;11.48;;;0.50;69.40;;;;;;5093151;28;20184;-76
2022/03/09 07:49:14;;;;;;;30.80;11.30;;;0.60;69.10;;;;;;5092695;28;20252;-76
2022/03/09 07:51:40;;;;;;;25.60;11.52;;;0.60;68.50;;;;;;5091377;28;20267;-75
2022/03/09 07:54:06;;;;;;;31.20;11.37;;;0.70;67.30;;;;;;5091401;28;20270;-74
2022/03/09 07:56:32;;;;;;;27.10;12.70;;;0.80;66.90;;;;;;5087375;28;20262;-73
2022/03/09 07:58:58;;;;;;;25.02;11.75;;;0.90;66.40;;;;;;5094934;28;20553;-71
2022/03/09 08:01:24;;;;;;;26.17;13.00;;;0.90;66.90;;;;;;5080233;28;20190;-73
2022/03/09 08:03:50;;;;;;;27.10;13.77;;;1.00;66.70;;;;;;5090258;28;20188;-73
2022/03/09 08:06:15;;;;;;;32.03;13.00;;;1.10;66.90;;;;;;5070619;28;20211;-72
2022/03/09 08:08:41;;;;;;;35.90;13.50;;;1.10;66.90;;;;;;5094488;28;20515;-74
2022/03/09 08:11:07;;;;;;;31.13;14.40;;;1.30;66.40;;;;;;5092247;28;20207;-73
2022/03/09 08:13:33;;;;;;;27.33;13.17;;;1.40;66.00;;;;;;5090638;28;20560;-74
2022/03/09 08:15:58;;;;;;;28.83;12.90;;;1.40;65.80;;;;;;5090612;28;20191;-74
2022/03/09 08:18:24;;;;;;;29.90;13.13;;;1.40;65.80;;;;;;5090942;28;20214;-73
2022/03/09 08:20:50;;;;;;;32.83;14.80;;;1.40;66.30;;;;;;5073158;28;20242;-74
2022/03/09 08:23:16;;;;;;;30.13;14.20;;;1.50;66.10;;;;;;5098420;28;20244;-72
2022/03/09 08:25:41;;;;;;;36.20;13.20;;;1.60;65.70;;;;;;5090908;28;20195;-72
2022/03/09 08:28:07;;;;;;;29.90;13.20;;;1.70;65.00;;;;;;5106374;28;20418;-73
2022/03/09 08:30:33;;;;;;;27.67;13.37;;;1.80;63.90;;;;;;5091496;28;20592;-72
2022/03/09 08:32:59;;;;;;;32.53;12.90;;;1.90;62.90;;;;;;5090797;28;20204;-71
2022/03/09 08:35:24;;;;;;;29.93;11.77;;;2.00;62.60;;;;;;5091673;28;20637;-72
2022/03/09 08:37:50;;;;;;;32.53;12.33;;;2.10;61.70;;;;;;5077337;28;20210;-75
2022/03/09 08:40:16;;;;;;;31.10;13.60;;;2.20;61.30;;;;;;5091154;28;20205;-73
2022/03/09 08:42:42;;;;;;;27.37;12.33;;;2.30;61.00;;;;;;5091590;28;20258;-73
2022/03/09 08:45:08;;;;;;;19.00;10.17;;;2.40;60.30;;;;;;5091076;28;20191;-75
2022/03/09 08:47:33;;;;;;;23.30;11.50;;;2.50;59.60;;;;;;5090794;28;20191;-73
2022/03/09 08:49:59;;;;;;;24.57;11.77;;;2.60;58.50;;;;;;5091446;28;20441;-71
2022/03/09 08:52:25;;;;;;;23.57;10.60;;;2.70;57.80;;;;;;5091197;28;20186;-72
2022/03/09 08:54:53;;;;;;;22.10;9.93;;;2.80;57.60;;;;;;5093434;28;20202;-74
2022/03/09 08:57:22;;;;;;;20.43;11.20;;;2.90;57.00;;;;;;5092118;28;20639;-72
2022/03/09 08:59:48;;;;;;;20.37;10.53;;;3.10;56.40;;;;;;5092299;28;20433;-72
2022/03/09 09:02:14;;;;;;;23.03;10.57;;;3.30;55.80;;;;;;5074659;28;20943;-71
2022/03/09 09:04:40;;;;;;;19.20;10.23;;;3.50;55.30;;;;;;5095460;28;20424;-74
2022/03/09 09:07:06;;;;;;;18.83;9.90;;;3.50;55.20;;;;;;5089982;28;20425;-74
2022/03/09 09:09:33;;;;;;;19.27;10.53;;;3.70;54.80;;;;;;5090851;28;20203;-72
2022/03/09 09:11:59;;;;;;;18.93;10.53;;;3.80;54.40;;;;;;5090168;28;20207;-74
2022/03/09 09:14:26;;;;;;;24.30;11.50;;;4.00;54.00;;;;;;5091955;28;20781;-74
2022/03/09 09:16:52;;;;;;;21.47;10.63;;;4.10;53.80;;;;;;5095153;28;20421;-72
2022/03/09 09:19:18;;;;;;;17.97;9.60;;;4.20;53.30;;;;;;5093065;28;20460;-73
2022/03/09 09:21:47;;;;;;;22.67;9.60;;;4.40;52.80;;;;;;5094715;28;20486;-74
2022/03/09 09:24:13;;;;;;;19.40;10.47;;;4.50;52.20;;;;;;5091723;28;20512;-76
2022/03/09 09:26:39;;;;;;;22.70;10.60;;;4.70;51.40;;;;;;5073870;28;21177;-75
2022/03/09 09:29:06;;;;;;;21.17;9.83;;;4.80;51.00;;;;;;5093197;28;20443;-75
2022/03/09 09:31:36;;;;;;;17.53;10.30;;;4.90;50.70;;;;;;5093680;28;20453;-74
2022/03/09 09:34:05;;;;;;;23.13;10.70;;;5.00;50.70;;;;;;5094979;28;20421;-75
2022/03/09 09:36:31;;;;;;;24.27;10.60;;;5.10;50.30;;;;;;5092881;28;20421;-75
2022/03/09 09:38:57;;;;;;;22.73;11.90;;;5.30;49.80;;;;;;5079462;28;20535;-75
2022/03/09 09:41:26;;;;;;;19.00;10.40;;;5.30;50.10;;;;;;5083752;28;20882;-74
2022/03/09 09:43:52;;;;;;;26.47;11.40;;;5.40;49.80;;;;;;5092686;28;20950;-74
2022/03/09 09:46:17;;;;;;;23.03;10.77;;;5.60;49.50;;;;;;5084889;28;20429;-75
2022/03/09 09:48:43;;;;;;;24.90;11.10;;;5.70;49.40;;;;;;5093634;28;20487;-75
2022/03/09 09:51:11;;;;;;;21.17;10.93;;;5.90;49.10;;;;;;5093742;28;20220;-75
2022/03/09 09:53:40;;;;;;;19.37;10.70;;;6.10;48.70;;;;;;5092477;28;20413;-75
2022/03/09 09:56:06;;;;;;;25.00;11.87;;;6.20;47.90;;;;;;5093218;28;20418;-73
2022/03/09 09:58:32;;;;;;;26.77;12.17;;;6.40;47.40;;;;;;5099502;28;20433;-74
2022/03/09 10:00:58;;;;;;;26.90;11.63;;;6.50;47.50;;;;;;5101733;28;20425;-74
2022/03/09 10:03:24;;;;;;;26.53;12.33;;;6.70;46.70;;;;;;5078767;28;20595;-75
2022/03/09 10:05:50;;;;;;;28.27;11.30;;;6.70;46.20;;;;;;5092942;28;20188;-76
2022/03/09 10:08:18;;;;;;;23.90;12.63;;;6.80;46.30;;;;;;5095032;28;20179;-73
2022/03/09 10:11:04;;;;;;;23.90;12.40;;;6.90;45.80;;;;;;5077113;28;20490;-72
2022/03/09 10:13:35;;;;;;;27.30;11.27;;;7.00;45.30;;;;;;5093847;28;20620;-72
2022/03/09 10:16:20;;;;;;;28.27;13.73;;;7.20;44.90;;;;;;5093658;28;20414;-73
2022/03/09 10:18:56;;;;;;;24.73;12.20;;;7.30;45.50;;;;;;5089255;28;20550;-73
2022/03/09 10:21:28;;;;;;;22.80;11.57;;;7.30;45.70;;;;;;5089770;28;20413;-74
2022/03/09 10:23:58;;;;;;;26.07;11.90;;;7.40;45.50;;;;;;5092420;28;20413;-73
2022/03/09 10:26:26;;;;;;;25.37;11.50;;;7.40;45.10;;;;;;5092498;28;20417;-73
2022/03/09 10:29:00;;;;;;;23.20;11.23;;;7.50;44.90;;;;;;5074215;28;20451;-74
2022/03/09 10:31:39;;;;;;;24.23;12.13;;;7.50;44.60;;;;;;5092376;28;20455;-75
2022/03/09 10:34:11;;;;;;;27.40;12.20;;;7.40;45.00;;;;;;5092514;28;20409;-73
2022/03/09 10:36:52;;;;;;;26.90;12.50;;;7.50;45.30;;;;;;5091932;28;20464;-74
2022/03/09 10:39:18;;;;;;;25.83;12.53;;;7.60;44.70;;;;;;5091251;28;20904;-73
2022/03/09 10:41:44;;;;;;;23.87;11.90;;;7.70;44.70;;;;;;5092603;28;20498;-73
2022/03/09 10:44:11;;;;;;;22.60;11.80;;;7.80;44.60;;;;;;5092880;28;20437;-73
2022/03/09 10:46:50;;;;;;;31.93;13.07;;;7.90;44.30;;;;;;5092288;28;20190;-75
2022/03/09 10:49:24;;;;;;;21.77;11.73;;;8.30;43.70;;;;;;5092261;28;20460;-74
2022/03/09 10:51:52;;;;;;;31.57;13.17;;;8.60;42.60;;;;;;5092296;28;20567;-74
2022/03/09 10:54:26;;;;;;;32.20;13.17;;;8.90;41.60;;;;;;5084607;28;20418;-75
2022/03/09 10:57:11;;;;;;;28.20;12.80;;;9.30;41.10;;;;;;5092382;28;20422;-74
2022/03/09 10:59:51;;;;;;;35.23;12.90;;;9.60;40.00;;;;;;5092830;28;20923;-75
2022/03/09 11:02:19;;;;;;;25.13;12.80;;;9.80;39.50;;;;;;5085093;28;20405;-74
2022/03/09 11:05:08;;;;;;;27.47;12.80;;;10.10;38.70;;;;;;5093143;28;20438;-72
2022/03/09 11:07:38;;;;;;;25.10;12.77;;;10.40;37.80;;;;;;5086870;28;20420;-73
2022/03/09 11:10:04;;;;;;;24.60;13.30;;;10.50;37.00;;;;;;5092729;28;20467;-73
2022/03/09 11:12:31;;;;;;;30.13;13.30;;;10.50;36.80;;;;;;5092235;28;20536;-73
2022/03/09 11:14:57;;;;;;;27.03;13.13;;;10.40;36.70;;;;;;5092423;28;20978;-75
2022/03/09 11:17:24;;;;;;;26.43;13.60;;;10.50;36.70;;;;;;5099174;28;20401;-74
2022/03/09 11:19:50;;;;;;;28.33;14.17;;;10.60;36.30;;;;;;5102030;28;20524;-74
2022/03/09 11:22:17;;;;;;;29.13;15.37;;;10.60;35.60;;;;;;5094304;28;20500;-73
2022/03/09 11:24:43;;;;;;;28.03;14.90;;;10.70;35.20;;;;;;5094844;28;20421;-73
2022/03/09 11:27:10;;;;;;;25.40;13.93;;;10.80;34.70;;;;;;5093401;28;20414;-74
2022/03/09 11:29:38;;;;;;;32.13;15.47;;;11.00;33.70;;;;;;5093800;28;20526;-75
2022/03/09 11:32:09;;;;;;;35.50;15.60;;;11.10;32.00;;;;;;5094397;28;20453;-75
2022/03/09 11:35:01;;;;;;;33.50;15.77;;;11.40;31.20;;;;;;5094756;28;20543;-72
2022/03/09 11:37:37;;;;;;;30.33;16.37;;;11.30;30.80;;;;;;5089713;28;20512;-74
2022/03/09 11:40:06;;;;;;;33.17;14.80;;;11.40;31.50;;;;;;5093729;28;20452;-74
2022/03/09 11:42:34;;;;;;;28.73;14.10;;;11.40;31.30;;;;;;5094288;28;20435;-72
2022/03/09 11:45:17;;;;;;;28.03;14.07;;;11.30;30.90;;;;;;5098531;28;20421;-73
2022/03/09 11:48:09;;;;;;;27.93;14.50;;;11.30;30.80;;;;;;5093909;28;20421;-76
2022/03/09 11:50:47;;;;;;;29.73;13.77;;;11.60;29.90;;;;;;5077802;28;20487;-75
2022/03/09 11:53:14;;;;;;;26.43;13.60;;;11.70;29.60;;;;;;5097424;28;20413;-75
2022/03/09 11:55:40;;;;;;;28.40;13.93;;;12.00;29.60;;;;;;5100744;28;20567;-74
2022/03/09 11:58:13;;;;;;;30.70;14.67;;;12.50;28.30;;;;;;5081326;28;20421;-75
2022/03/09 12:00:59;;;;;;;23.40;13.67;;;12.40;28.00;;;;;;5099985;28;20437;-73
2022/03/09 12:03:40;;;;;;;24.47;12.60;;;12.00;28.40;;;;;;5079030;28;20425;-74
2022/03/09 12:06:44;;;;;;;23.60;13.10;;;11.80;28.90;;;;;;5097046;28;20415;-73
2022/03/09 12:09:09;;;;;;;25.93;13.30;;;11.70;28.40;;;;;;5095869;28;20432;-72
2022/03/09 12:12:08;;;;;;;27.43;13.77;;;11.90;28.70;;;;;;5093260;28;20456;-73
2022/03/09 12:15:03;;;;;;;27.40;13.30;;;12.20;28.30;;;;;;4992870;28;20548;-72
2022/03/09 12:17:44;;;;;;;27.30;13.47;;;12.30;27.90;;;;;;4995859;28;20430;-72
2022/03/09 12:20:29;;;;;;;29.10;13.70;;;12.60;27.40;;;;;;4979278;28;20461;-74
2022/03/09 12:23:01;;;;;;;27.13;13.70;;;12.80;27.00;;;;;;4979647;28;20543;-74
2022/03/09 12:25:49;;;;;;;19.53;11.60;;;12.80;26.70;;;;;;5000034;28;20414;-73
2022/03/09 12:28:23;;;;;;;21.70;13.27;;;13.20;26.60;;;;;;4993215;28;20426;-73
2022/03/09 12:30:51;;;;;;;25.20;13.00;;;13.20;26.90;;;;;;4991346;28;20477;-74
2022/03/09 12:33:26;;;;;;;22.17;13.03;;;12.70;27.60;;;;;;4989544;28;20879;-74
2022/03/09 12:35:53;;;;;;;28.73;14.03;;;12.50;28.10;;;;;;4976041;28;20515;-72
2022/03/09 12:38:19;;;;;;;24.50;12.77;;;12.70;28.00;;;;;;4989434;28;20944;-71
2022/03/09 12:40:45;;;;;;;24.70;13.03;;;12.80;27.70;;;;;;4989290;28;20480;-72
2022/03/09 12:43:13;;;;;;;25.00;13.50;;;12.70;27.80;;;;;;4996233;28;20917;-74